createdAt,value
2018-09-25T00:00:32.567Z,3.00
2018-09-25T00:03:07.695Z,2.83
2018-09-25T00:05:42.893Z,2.87
2018-09-25T00:08:17.979Z,3.20
2018-09-25T00:10:53.039Z,2.70
2018-09-25T00:13:28.039Z,2.70
2018-09-25T00:16:03.136Z,2.92
2018-09-25T00:18:38.151Z,2.92
2018-09-25T00:21:13.220Z,2.90
2018-09-25T00:23:48.210Z,3.00
2018-09-25T00:26:23.302Z,2.92
2018-09-25T00:28:58.287Z,2.90
2018-09-25T00:31:33.372Z,2.65
2018-09-25T00:34:08.355Z,3.30
2018-09-25T00:36:43.743Z,2.90
2018-09-25T00:39:18.678Z,2.85
2018-09-25T00:41:53.681Z,3.00
2018-09-25T00:44:28.692Z,3.08
2018-09-25T00:47:03.708Z,2.80
2018-09-25T00:49:38.856Z,2.52
2018-09-25T00:52:13.775Z,2.95
2018-09-25T00:54:48.733Z,3.00
2018-09-25T00:57:23.703Z,3.20
2018-09-25T00:59:58.774Z,2.83
2018-09-25T01:02:33.716Z,3.40
2018-09-25T01:05:08.726Z,3.05
2018-09-25T01:07:43.854Z,3.20
2018-09-25T01:10:18.987Z,3.05
2018-09-25T01:12:53.963Z,3.42
2018-09-25T01:15:29.095Z,3.25
2018-09-25T01:18:04.076Z,2.98
2018-09-25T01:20:39.185Z,2.90
2018-09-25T01:23:14.252Z,3.10
2018-09-25T01:25:49.530Z,3.42
2018-09-25T01:28:24.561Z,2.77
2018-09-25T01:30:59.472Z,3.55
2018-09-25T01:33:34.495Z,3.12
2018-09-25T01:36:09.503Z,2.90
2018-09-25T01:38:44.456Z,3.00
2018-09-25T01:41:19.490Z,3.25
2018-09-25T01:43:54.358Z,3.00
2018-09-25T01:46:29.318Z,3.30
2018-09-25T01:49:04.338Z,3.33
2018-09-25T01:51:39.355Z,3.50
2018-09-25T01:54:14.401Z,2.77
2018-09-25T01:56:49.491Z,3.40
2018-09-25T01:59:24.435Z,3.25
2018-09-25T02:01:59.375Z,3.30
2018-09-25T02:04:34.559Z,2.85
2018-09-25T02:07:09.574Z,3.27
2018-09-25T02:09:44.481Z,2.90
2018-09-25T02:12:20.160Z,3.10
2018-09-25T02:14:55.288Z,3.47
2018-09-25T02:17:30.511Z,3.40
2018-09-25T02:20:05.553Z,3.02
2018-09-25T02:22:40.740Z,3.58
2018-09-25T02:25:15.731Z,3.47
2018-09-25T02:27:50.695Z,3.30
2018-09-25T02:30:25.669Z,3.17
2018-09-25T02:33:00.829Z,2.98
2018-09-25T02:35:35.856Z,2.80
2018-09-25T02:38:10.987Z,3.00
2018-09-25T02:40:45.900Z,2.52
2018-09-25T02:43:20.871Z,2.83
2018-09-25T02:45:55.913Z,2.60
2018-09-25T02:48:30.931Z,2.95
2018-09-25T02:51:05.887Z,3.10
2018-09-25T02:53:40.994Z,3.60
2018-09-25T02:56:17.463Z,2.62
2018-09-25T02:58:52.682Z,2.90
2018-09-25T03:01:28.006Z,2.80
2018-09-25T03:04:03.035Z,2.67
2018-09-25T03:06:37.986Z,3.00
2018-09-25T03:09:13.912Z,3.45
2018-09-25T03:11:49.004Z,4.37
2018-09-25T03:14:23.873Z,3.55
2018-09-25T03:16:59.030Z,3.42
2018-09-25T03:19:33.987Z,3.17
2018-09-25T03:22:08.951Z,2.37
2018-09-25T03:24:43.939Z,2.67
2018-09-25T03:27:19.003Z,2.70
2018-09-25T03:29:54.003Z,2.50
2018-09-25T03:32:29.088Z,3.02
2018-09-25T03:35:04.012Z,3.00
2018-09-25T03:37:38.947Z,3.10
2018-09-25T03:40:13.771Z,2.83
2018-09-25T03:42:48.661Z,2.60
2018-09-25T03:45:23.628Z,2.60
2018-09-25T03:47:58.691Z,2.67
2018-09-25T03:50:33.616Z,2.60
2018-09-25T03:53:08.654Z,2.58
2018-09-25T03:55:43.914Z,2.62
2018-09-25T03:58:18.830Z,2.85
2018-09-25T04:00:53.800Z,2.40
2018-09-25T04:03:28.910Z,2.83
2018-09-25T04:06:03.939Z,2.50
2018-09-25T04:08:39.007Z,2.90
2018-09-25T04:11:14.078Z,2.77
2018-09-25T04:13:49.113Z,2.50
2018-09-25T04:16:24.163Z,2.52
2018-09-25T04:18:59.199Z,2.80
2018-09-25T04:21:34.240Z,2.52
2018-09-25T04:24:09.230Z,2.70
2018-09-25T04:26:44.287Z,2.70
2018-09-25T04:29:19.416Z,3.45
2018-09-25T04:31:54.363Z,3.10
2018-09-25T04:34:29.475Z,3.52
2018-09-25T04:37:04.466Z,3.20
2018-09-25T04:39:39.686Z,3.42
2018-09-25T04:42:14.651Z,3.20
2018-09-25T04:44:50.508Z,3.65
2018-09-25T04:47:25.954Z,3.45
2018-09-25T04:50:01.099Z,3.55
2018-09-25T04:52:36.195Z,3.10
2018-09-25T04:55:11.457Z,3.60
2018-09-25T04:57:46.423Z,3.50
2018-09-25T05:00:21.543Z,3.40
2018-09-25T05:02:56.463Z,2.83
2018-09-25T05:05:31.527Z,2.90
2018-09-25T05:08:06.575Z,3.20
2018-09-25T05:10:41.585Z,3.40
2018-09-25T05:13:16.507Z,3.40
2018-09-25T05:15:51.583Z,2.87
2018-09-25T05:18:26.602Z,3.50
2018-09-25T05:21:01.748Z,3.17
2018-09-25T05:23:36.846Z,3.60
2018-09-25T05:26:11.982Z,3.12
2018-09-25T05:28:46.970Z,3.55
2018-09-25T05:31:22.223Z,3.70
2018-09-25T05:33:57.407Z,4.00
2018-09-25T05:36:32.528Z,3.42
2018-09-25T05:39:07.611Z,4.00
2018-09-25T05:41:42.519Z,3.70
2018-09-25T05:44:17.562Z,3.87
2018-09-25T05:46:52.401Z,4.25
2018-09-25T05:49:27.339Z,3.77
2018-09-25T05:52:02.351Z,3.58
2018-09-25T05:54:37.339Z,4.45
2018-09-25T05:57:12.567Z,4.30
2018-09-25T05:59:47.475Z,4.35
2018-09-25T06:02:22.579Z,3.70
2018-09-25T06:04:57.790Z,3.55
2018-09-25T06:07:33.039Z,3.30
2018-09-25T06:10:07.987Z,3.50
2018-09-25T06:12:43.019Z,3.15
2018-09-25T06:15:18.378Z,3.30
2018-09-25T06:17:53.452Z,3.00
2018-09-25T06:20:28.863Z,3.45
2018-09-25T06:23:03.845Z,3.40
2018-09-25T06:25:38.919Z,3.67
2018-09-25T06:28:14.291Z,3.62
2018-09-25T06:30:49.527Z,3.60
2018-09-25T06:33:24.631Z,3.40
2018-09-25T06:35:59.616Z,3.67
2018-09-25T06:38:34.703Z,4.22
2018-09-25T06:41:09.767Z,3.70
2018-09-25T06:43:44.763Z,3.45
2018-09-25T06:46:19.809Z,2.90
2018-09-25T06:48:55.019Z,3.30
2018-09-25T06:51:29.987Z,3.00
2018-09-25T06:54:04.890Z,3.27
2018-09-25T06:56:39.927Z,3.25
2018-09-25T06:59:14.862Z,3.17
2018-09-25T07:01:49.783Z,4.37
2018-09-25T07:04:25.055Z,3.33
2018-09-25T07:06:59.995Z,3.62
2018-09-25T07:09:35.081Z,3.98
2018-09-25T07:12:10.083Z,3.15
2018-09-25T07:14:45.019Z,3.00
2018-09-25T07:17:19.906Z,3.22
2018-09-25T07:19:54.827Z,3.27
2018-09-25T07:22:29.841Z,3.83
2018-09-25T07:25:04.783Z,2.77
2018-09-25T07:27:39.981Z,2.77
2018-09-25T07:30:14.920Z,2.50
2018-09-25T07:32:50.359Z,1.75
2018-09-25T07:35:25.278Z,2.00
2018-09-25T07:38:00.326Z,2.00
2018-09-25T07:40:35.263Z,2.35
2018-09-25T07:43:10.202Z,2.05
2018-09-25T07:45:45.298Z,1.60
2018-09-25T07:48:20.312Z,2.25
2018-09-25T07:50:55.457Z,2.15
2018-09-25T07:53:30.511Z,2.12
2018-09-25T07:56:05.517Z,2.05
2018-09-25T07:58:40.623Z,1.25
2018-09-25T08:01:15.556Z,1.37
2018-09-25T08:03:50.535Z,1.40
2018-09-25T08:06:25.559Z,1.50
2018-09-25T08:09:00.549Z,1.37
2018-09-25T08:11:35.776Z,1.75
2018-09-25T08:14:10.740Z,1.37
2018-09-25T08:16:45.822Z,1.70
2018-09-25T08:19:20.863Z,1.27
2018-09-25T08:21:55.859Z,1.40
2018-09-25T08:24:30.895Z,1.60
2018-09-25T08:27:06.021Z,1.55
2018-09-25T08:29:41.020Z,1.20
2018-09-25T08:32:16.042Z,1.60
2018-09-25T08:34:51.266Z,1.62
2018-09-25T08:37:26.411Z,1.22
2018-09-25T08:40:01.383Z,1.12
2018-09-25T08:42:36.443Z,1.27
2018-09-25T08:45:17.168Z,1.00
2018-09-25T08:47:52.203Z,1.07
2018-09-25T08:50:27.231Z,1.00
2018-09-25T08:53:02.303Z,1.17
2018-09-25T08:55:37.298Z,1.10
2018-09-25T08:58:12.077Z,1.00
2018-09-25T09:00:47.507Z,1.20
2018-09-25T09:03:22.704Z,0.78
2018-09-25T09:05:57.743Z,1.32
2018-09-25T09:08:32.736Z,1.30
2018-09-25T09:11:07.683Z,1.40
2018-09-25T09:13:42.666Z,0.85
2018-09-25T09:16:17.848Z,1.20
2018-09-25T09:18:52.776Z,0.90
2018-09-25T09:21:27.892Z,1.10
2018-09-25T09:24:02.911Z,0.98
2018-09-25T09:26:37.841Z,1.07
2018-09-25T09:29:12.831Z,1.40
2018-09-25T09:31:47.918Z,1.40
2018-09-25T09:34:22.956Z,1.70
2018-09-25T09:36:58.164Z,1.77
2018-09-25T09:39:33.307Z,1.70
2018-09-25T09:42:08.284Z,1.30
2018-09-25T09:44:43.478Z,1.05
2018-09-25T09:47:18.570Z,1.07
2018-09-25T09:49:53.583Z,0.93
2018-09-25T09:52:28.584Z,1.20
2018-09-25T09:55:03.616Z,1.02
2018-09-25T09:57:38.640Z,1.22
2018-09-25T10:00:13.607Z,1.00
2018-09-25T10:02:48.591Z,1.00
2018-09-25T10:05:23.552Z,1.12
2018-09-25T10:07:58.816Z,1.27
2018-09-25T10:10:33.999Z,1.00
2018-09-25T10:13:08.963Z,0.95
2018-09-25T10:15:44.119Z,1.40
2018-09-25T10:18:19.147Z,1.00
2018-09-25T10:20:54.112Z,1.05
2018-09-25T10:23:29.206Z,1.10
2018-09-25T10:26:04.246Z,0.80
2018-09-25T10:28:39.298Z,1.47
2018-09-25T10:31:14.270Z,1.00
2018-09-25T10:33:49.461Z,1.30
2018-09-25T10:36:25.143Z,0.95
2018-09-25T10:39:00.214Z,1.17
2018-09-25T10:41:35.195Z,1.12
2018-09-25T10:44:10.320Z,1.00
2018-09-25T10:46:45.242Z,1.15
2018-09-25T10:49:20.353Z,1.10
2018-09-25T10:51:55.413Z,1.20
2018-09-25T10:54:30.519Z,0.98
2018-09-25T10:57:05.476Z,0.90
2018-09-25T10:59:40.611Z,1.32
2018-09-25T11:02:15.736Z,1.42
2018-09-25T11:04:50.883Z,1.05
2018-09-25T11:07:25.893Z,1.72
2018-09-25T11:10:00.971Z,1.30
2018-09-25T11:12:36.319Z,1.17
2018-09-25T11:15:11.667Z,1.37
2018-09-25T11:17:46.556Z,1.25
2018-09-25T11:20:21.611Z,1.10
2018-09-25T11:22:56.680Z,1.32
2018-09-25T11:25:31.695Z,1.02
2018-09-25T11:28:07.108Z,1.30
2018-09-25T11:30:42.149Z,1.50
2018-09-25T11:33:17.425Z,1.32
2018-09-25T11:35:52.435Z,1.10
2018-09-25T11:38:27.507Z,1.07
2018-09-25T11:41:02.580Z,1.32
2018-09-25T11:43:37.615Z,1.60
2018-09-25T11:46:12.609Z,1.37
2018-09-25T11:48:47.599Z,1.57
2018-09-25T11:51:22.648Z,1.10
2018-09-25T11:53:57.588Z,1.57
2018-09-25T11:56:32.544Z,1.17
2018-09-25T11:59:07.544Z,1.20
2018-09-25T12:01:42.451Z,1.10
2018-09-25T12:04:17.401Z,1.00
2018-09-25T12:06:52.809Z,1.30
2018-09-25T12:09:28.356Z,1.20
2018-09-25T12:12:03.415Z,1.40
2018-09-25T12:14:38.855Z,1.45
2018-09-25T12:17:14.050Z,1.05
2018-09-25T12:19:49.320Z,1.17
2018-09-25T12:22:24.335Z,0.90
2018-09-25T12:24:59.320Z,1.32
2018-09-25T12:27:34.414Z,1.00
2018-09-25T12:30:10.367Z,1.40
2018-09-25T12:32:45.473Z,1.17
2018-09-25T12:35:21.167Z,0.93
2018-09-25T12:37:56.469Z,0.85
2018-09-25T12:40:31.675Z,1.42
2018-09-25T12:43:06.766Z,1.10
2018-09-25T12:45:41.967Z,1.22
2018-09-25T12:48:17.071Z,1.12
2018-09-25T12:50:52.235Z,1.12
2018-09-25T12:53:27.814Z,1.20
2018-09-25T12:56:03.012Z,1.42
2018-09-25T12:58:37.995Z,1.50
2018-09-25T13:01:13.107Z,1.32
2018-09-25T13:03:48.456Z,1.22
2018-09-25T13:06:23.635Z,1.07
2018-09-25T13:08:58.375Z,1.42
2018-09-25T13:11:33.559Z,1.20
2018-09-25T13:14:10.849Z,1.52
2018-09-25T13:16:46.057Z,1.22
2018-09-25T13:19:21.387Z,1.10
2018-09-25T13:21:56.764Z,1.25
2018-09-25T13:24:32.092Z,1.05
2018-09-25T13:27:07.354Z,1.10
2018-09-25T13:29:42.323Z,1.40
2018-09-25T13:32:17.447Z,0.95
2018-09-25T13:34:52.407Z,1.25
2018-09-25T13:37:27.402Z,1.25
2018-09-25T13:40:02.987Z,0.95
2018-09-25T13:42:38.381Z,0.90
2018-09-25T13:45:16.826Z,1.30
2018-09-25T13:47:52.986Z,1.15
2018-09-25T13:50:28.364Z,1.07
2018-09-25T13:53:03.486Z,0.93
2018-09-25T13:55:38.639Z,1.10
2018-09-25T13:58:13.642Z,0.93
2018-09-25T14:00:48.778Z,1.07
2018-09-25T14:03:23.845Z,0.93
2018-09-25T14:05:58.968Z,1.50
2018-09-25T14:08:34.035Z,1.00
2018-09-25T14:11:09.147Z,1.10
2018-09-25T14:13:44.114Z,1.25
2018-09-25T14:16:19.223Z,0.90
2018-09-25T14:18:54.062Z,1.20
2018-09-25T14:21:29.047Z,1.30
2018-09-25T14:24:04.060Z,0.68
2018-09-25T14:26:39.007Z,1.15
2018-09-25T14:29:14.144Z,1.00
2018-09-25T14:31:49.086Z,0.82
2018-09-25T14:34:24.175Z,1.10
2018-09-25T14:36:59.146Z,0.95
2018-09-25T14:39:35.313Z,1.10
2018-09-25T14:42:10.156Z,1.00
2018-09-25T14:44:45.180Z,1.00
2018-09-25T14:47:20.147Z,0.88
2018-09-25T14:49:55.253Z,1.20
2018-09-25T14:52:30.375Z,0.80
2018-09-25T14:55:05.363Z,1.22
2018-09-25T14:57:40.411Z,1.40
2018-09-25T15:00:15.279Z,1.10
2018-09-25T15:02:50.219Z,1.17
2018-09-25T15:05:25.282Z,1.40
2018-09-25T15:08:00.192Z,0.82
2018-09-25T15:10:35.181Z,1.00
2018-09-25T15:13:11.287Z,0.95
2018-09-25T15:15:46.387Z,0.80
2018-09-25T15:18:21.424Z,1.17
2018-09-25T15:20:56.412Z,1.15
2018-09-25T15:23:31.760Z,1.20
2018-09-25T15:26:06.941Z,1.17
2018-09-25T15:28:42.021Z,1.20
2018-09-25T15:31:17.076Z,1.50
2018-09-25T15:33:51.919Z,0.95
2018-09-25T15:36:27.007Z,1.07
2018-09-25T15:39:01.927Z,0.85
2018-09-25T15:41:37.511Z,1.07
2018-09-25T15:44:12.846Z,1.40
2018-09-25T15:46:47.875Z,1.00
2018-09-25T15:49:22.829Z,1.27
2018-09-25T15:51:58.320Z,1.20
2018-09-25T15:54:33.399Z,1.02
2018-09-25T15:57:08.764Z,1.40
2018-09-25T15:59:43.671Z,1.07
2018-09-25T16:02:18.670Z,1.35
2018-09-25T16:04:53.575Z,1.25
2018-09-25T16:07:28.670Z,0.98
2018-09-25T16:10:03.855Z,0.75
2018-09-25T16:12:38.875Z,1.00
2018-09-25T16:15:13.871Z,1.07
2018-09-25T16:17:48.731Z,1.20
2018-09-25T16:20:23.776Z,0.95
2018-09-25T16:22:58.788Z,1.10
2018-09-25T16:25:33.615Z,1.05
2018-09-25T16:28:08.594Z,1.15
2018-09-25T16:30:43.745Z,1.00
2018-09-25T16:33:18.808Z,1.22
2018-09-25T16:35:54.227Z,1.10
2018-09-25T16:38:29.393Z,1.00
2018-09-25T16:41:04.711Z,1.55
2018-09-25T16:43:39.687Z,1.25
2018-09-25T16:46:14.924Z,1.20
2018-09-25T16:48:49.993Z,1.10
2018-09-25T16:51:24.963Z,1.27
2018-09-25T16:54:00.019Z,1.30
2018-09-25T16:56:35.148Z,1.17
2018-09-25T16:59:10.159Z,0.95
2018-09-25T17:01:45.215Z,1.15
2018-09-25T17:04:20.196Z,0.90
2018-09-25T17:06:55.692Z,1.37
2018-09-25T17:09:30.796Z,1.57
2018-09-25T17:12:05.863Z,1.37
2018-09-25T17:14:41.732Z,1.67
2018-09-25T17:17:17.726Z,1.10
2018-09-25T17:19:52.687Z,1.52
2018-09-25T17:22:27.725Z,1.50
2018-09-25T17:25:02.799Z,1.47
2018-09-25T17:27:37.891Z,1.50
2018-09-25T17:30:13.317Z,1.67
2018-09-25T17:32:48.323Z,1.22
2018-09-25T17:35:23.166Z,1.20
2018-09-25T17:37:58.003Z,1.20
2018-09-25T17:40:33.400Z,1.17
2018-09-25T17:43:08.797Z,1.15
2018-09-25T17:45:43.940Z,1.10
2018-09-25T17:48:18.932Z,1.20
2018-09-25T17:50:53.967Z,1.50
2018-09-25T17:53:28.991Z,1.47
2018-09-25T17:56:04.031Z,1.60
2018-09-25T17:58:39.338Z,1.72
2018-09-25T18:01:14.477Z,1.20
2018-09-25T18:03:50.030Z,1.27
2018-09-25T18:06:25.171Z,1.32
2018-09-25T18:09:00.611Z,1.72
2018-09-25T18:11:35.983Z,1.80
2018-09-25T18:14:11.668Z,1.72
2018-09-25T18:16:46.776Z,1.45
2018-09-25T18:19:21.987Z,1.70
2018-09-25T18:21:57.292Z,1.50
2018-09-25T18:24:32.564Z,1.80
2018-09-25T18:27:08.043Z,2.58
2018-09-25T18:29:43.247Z,2.45
2018-09-25T18:32:18.627Z,2.45
2018-09-25T18:34:53.664Z,2.08
2018-09-25T18:37:29.060Z,2.77
2018-09-25T18:40:04.697Z,2.33
2018-09-25T18:42:40.791Z,1.90
2018-09-25T18:45:16.676Z,2.00
2018-09-25T18:47:51.703Z,2.10
2018-09-25T18:50:26.805Z,2.40
2018-09-25T18:53:02.448Z,1.98
2018-09-25T18:55:37.821Z,2.27
2018-09-25T18:58:13.482Z,1.90
2018-09-25T19:00:48.519Z,1.90
2018-09-25T19:03:23.524Z,2.05
2018-09-25T19:05:58.759Z,1.80
2018-09-25T19:08:33.904Z,2.20
2018-09-25T19:11:09.039Z,1.90
2018-09-25T19:13:44.152Z,2.20
2018-09-25T19:16:19.402Z,2.08
2018-09-25T19:18:54.400Z,2.20
2018-09-25T19:21:29.777Z,2.30
2018-09-25T19:24:05.489Z,2.50
2018-09-25T19:26:46.294Z,1.67
2018-09-25T19:29:21.427Z,2.10
2018-09-25T19:31:56.776Z,2.45
2018-09-25T19:34:31.703Z,2.40
2018-09-25T19:37:07.443Z,2.35
2018-09-25T19:39:42.803Z,2.52
2018-09-25T19:42:17.824Z,2.30
2018-09-25T19:44:53.705Z,2.37
2018-09-25T19:47:28.631Z,2.33
2018-09-25T19:50:03.861Z,2.40
2018-09-25T19:52:38.999Z,2.47
2018-09-25T19:55:14.163Z,2.52
2018-09-25T19:57:57.446Z,2.62
2018-09-25T20:00:32.811Z,2.72
2018-09-25T20:03:07.883Z,2.60
2018-09-25T20:05:42.847Z,2.58
2018-09-25T20:08:17.751Z,2.08
2018-09-25T20:10:52.766Z,2.47
2018-09-25T20:13:27.933Z,2.47
2018-09-25T20:16:03.322Z,2.40
2018-09-25T20:18:38.663Z,2.47
2018-09-25T20:21:13.775Z,2.87
2018-09-25T20:23:48.843Z,2.10
2018-09-25T20:26:23.883Z,1.92
2018-09-25T20:28:59.255Z,1.95
2018-09-25T20:31:34.470Z,1.92
2018-09-25T20:34:09.488Z,2.72
2018-09-25T20:36:44.647Z,2.22
2018-09-25T20:39:19.911Z,2.02
2018-09-25T20:41:55.104Z,2.45
2018-09-25T20:44:30.195Z,1.90
2018-09-25T20:47:05.382Z,2.45
2018-09-25T20:49:41.063Z,2.22
2018-09-25T20:52:16.601Z,2.70
2018-09-25T20:54:51.631Z,2.30
2018-09-25T20:57:27.083Z,2.75
2018-09-25T21:00:02.177Z,2.70
2018-09-25T21:02:37.663Z,2.40
2018-09-25T21:05:12.883Z,2.20
2018-09-25T21:07:48.171Z,2.10
2018-09-25T21:10:23.255Z,1.87
2018-09-25T21:12:58.496Z,1.98
2018-09-25T21:15:33.701Z,2.00
2018-09-25T21:18:09.450Z,1.90
2018-09-25T21:20:44.455Z,1.90
2018-09-25T21:23:19.428Z,2.10
2018-09-25T21:25:54.800Z,1.72
2018-09-25T21:28:29.901Z,1.82
2018-09-25T21:31:05.228Z,1.85
2018-09-25T21:33:40.497Z,1.70
2018-09-25T21:36:15.395Z,1.70
2018-09-25T21:38:50.548Z,1.50
2018-09-25T21:41:25.759Z,1.62
2018-09-25T21:44:00.862Z,1.75
2018-09-25T21:46:36.026Z,1.72
2018-09-25T21:49:11.046Z,1.70
2018-09-25T21:51:46.384Z,1.30
2018-09-25T21:54:21.607Z,1.75
2018-09-25T21:56:56.731Z,1.57
2018-09-25T21:59:31.964Z,1.00
2018-09-25T22:02:06.869Z,1.80
2018-09-25T22:04:42.028Z,1.45
2018-09-25T22:07:17.187Z,1.45
2018-09-25T22:09:52.066Z,1.20
2018-09-25T22:12:27.118Z,1.17
2018-09-25T22:15:02.087Z,1.00
2018-09-25T22:17:37.307Z,1.30
2018-09-25T22:20:12.698Z,0.90
2018-09-25T22:22:47.584Z,1.00
2018-09-25T22:25:22.487Z,1.35
2018-09-25T22:27:57.643Z,1.20
2018-09-25T22:30:32.662Z,1.22
2018-09-25T22:33:08.010Z,1.50
2018-09-25T22:35:43.081Z,1.30
2018-09-25T22:38:18.213Z,1.35
2018-09-25T22:40:53.359Z,1.27
2018-09-25T22:43:28.476Z,1.22
2018-09-25T22:46:03.706Z,1.20
2018-09-25T22:48:38.707Z,1.40
2018-09-25T22:51:13.654Z,1.02
2018-09-25T22:53:48.683Z,1.35
2018-09-25T22:56:23.755Z,1.25
2018-09-25T22:58:58.834Z,1.20
2018-09-25T23:01:34.150Z,1.45
2018-09-25T23:04:09.084Z,1.10
2018-09-25T23:06:44.182Z,1.20
2018-09-25T23:09:19.338Z,1.12
2018-09-25T23:11:54.319Z,1.12
2018-09-25T23:14:29.225Z,1.25
2018-09-25T23:17:04.179Z,1.27
2018-09-25T23:19:39.307Z,1.00
2018-09-25T23:22:14.392Z,1.05
2018-09-25T23:24:49.518Z,1.17
2018-09-25T23:27:24.519Z,1.10
2018-09-25T23:29:59.507Z,1.00
2018-09-25T23:32:34.543Z,1.10
2018-09-25T23:35:09.544Z,0.90
2018-09-25T23:37:44.588Z,1.12
2018-09-25T23:41:20.248Z,1.17
2018-09-25T23:44:07.096Z,0.95
2018-09-25T23:47:45.732Z,1.15
2018-09-25T23:50:20.728Z,0.90
2018-09-25T23:52:55.871Z,1.20
2018-09-25T23:55:30.681Z,1.02
2018-09-25T23:58:05.702Z,1.05
